Time;durP1;ratioP1;P1;durP2;ratioP2;P2;SDS_P1;SDS_P2;PMS_P1;PMS_P2;Temp;Humidity;BMP_temperature;BMP_pressure;BME280_temperature;BME280_humidity;BME280_pressure;Samples;Min_cycle;Max_cycle;Signal;HPM_P1;HPM_P2
2023/12/26 00:01:38;;;;;;;7.13;1.87;;;;;;;;;;727881;187;939681;-69
2023/12/26 00:04:04;;;;;;;2.53;1.20;;;;;;;;;;735797;186;809520;-69
2023/12/26 00:06:30;;;;;;;3.73;1.63;;;;;;;;;;735715;189;913783;-71
2023/12/26 00:08:55;;;;;;;3.77;1.60;;;;;;;;;;729030;190;935901;-61
2023/12/26 00:11:21;;;;;;;3.83;1.73;;;;;;;;;;722431;190;920051;-61
2023/12/26 00:13:47;;;;;;;3.63;1.50;;;;;;;;;;747957;185;919137;-69
2023/12/26 00:16:13;;;;;;;4.53;1.97;;;;;;;;;;726492;190;919817;-61
2023/12/26 00:18:39;;;;;;;5.73;1.67;;;;;;;;;;730544;190;918873;-61
2023/12/26 00:21:05;;;;;;;2.83;1.43;;;;;;;;;;732482;191;914629;-61
2023/12/26 00:23:31;;;;;;;3.03;1.53;;;;;;;;;;732699;189;915830;-70
2023/12/26 00:25:58;;;;;;;5.53;1.63;;;;;;;;;;736328;189;921853;-70
2023/12/26 00:28:22;;;;;;;3.20;1.90;;;;;;;;;;742192;187;922297;-60
2023/12/26 00:30:48;;;;;;;3.53;1.77;;;;;;;;;;728805;186;921140;-61
2023/12/26 00:33:14;;;;;;;2.87;1.90;;;;;;;;;;751086;184;918178;-70
2023/12/26 00:35:40;;;;;;;3.43;1.77;;;;;;;;;;750835;182;916345;-61
2023/12/26 00:38:06;;;;;;;4.90;1.70;;;;;;;;;;747300;187;927413;-61
2023/12/26 00:40:31;;;;;;;3.67;1.47;;;;;;;;;;743616;184;916227;-70
2023/12/26 00:42:57;;;;;;;4.63;2.00;;;;;;;;;;731874;189;916455;-69
2023/12/26 00:45:25;;;;;;;3.23;1.83;;;;;;;;;;741681;188;912897;-60
2023/12/26 00:47:49;;;;;;;2.53;1.40;;;;;;;;;;733852;189;916200;-69
2023/12/26 00:50:16;;;;;;;3.43;1.60;;;;;;;;;;736513;189;918776;-61
2023/12/26 00:52:41;;;;;;;4.43;1.90;;;;;;;;;;740754;188;918398;-60
2023/12/26 00:55:08;;;;;;;2.73;1.40;;;;;;;;;;738617;187;917711;-70
2023/12/26 00:57:33;;;;;;;2.30;1.30;;;;;;;;;;736793;186;919875;-70
2023/12/26 00:59:59;;;;;;;2.90;1.50;;;;;;;;;;747305;185;795487;-61
2023/12/26 01:02:25;;;;;;;2.43;1.20;;;;;;;;;;740316;186;919132;-70
2023/12/26 01:04:51;;;;;;;3.00;1.37;;;;;;;;;;736817;189;816040;-60
2023/12/26 01:07:16;;;;;;;3.37;1.77;;;;;;;;;;733255;188;919641;-61
2023/12/26 01:09:42;;;;;;;3.07;1.47;;;;;;;;;;742869;187;916498;-70
2023/12/26 01:12:08;;;;;;;2.50;1.43;;;;;;;;;;733093;188;888413;-70
2023/12/26 01:14:34;;;;;;;4.00;1.40;;;;;;;;;;731930;189;919105;-60
2023/12/26 01:17:00;;;;;;;5.83;1.67;;;;;;;;;;742392;188;918382;-60
2023/12/26 01:19:26;;;;;;;6.03;1.73;;;;;;;;;;734809;188;920777;-61
2023/12/26 01:21:51;;;;;;;3.40;1.70;;;;;;;;;;732541;187;919149;-60
2023/12/26 01:24:17;;;;;;;2.67;1.50;;;;;;;;;;734384;191;919205;-61
2023/12/26 01:26:43;;;;;;;2.80;1.40;;;;;;;;;;735119;188;896398;-70
2023/12/26 01:29:09;;;;;;;3.27;1.53;;;;;;;;;;732864;189;919114;-70
2023/12/26 01:31:35;;;;;;;2.53;1.37;;;;;;;;;;732568;189;901903;-61
2023/12/26 01:34:01;;;;;;;2.93;1.23;;;;;;;;;;738740;187;917898;-60
2023/12/26 01:36:26;;;;;;;3.42;1.70;;;;;;;;;;737735;186;919200;-60
2023/12/26 01:38:52;;;;;;;2.53;1.20;;;;;;;;;;733731;188;915834;-61
2023/12/26 01:41:18;;;;;;;3.12;1.50;;;;;;;;;;740768;187;918306;-60
2023/12/26 01:43:44;;;;;;;2.67;1.50;;;;;;;;;;733374;188;818353;-60
2023/12/26 01:46:10;;;;;;;3.15;1.40;;;;;;;;;;735285;189;935316;-61
2023/12/26 01:48:36;;;;;;;3.87;1.47;;;;;;;;;;741115;189;919864;-60
2023/12/26 01:51:02;;;;;;;3.42;1.33;;;;;;;;;;733738;187;919103;-60
2023/12/26 01:53:27;;;;;;;3.00;1.53;;;;;;;;;;734010;189;919428;-70
2023/12/26 01:55:53;;;;;;;3.00;1.57;;;;;;;;;;737292;189;919762;-60
2023/12/26 01:58:19;;;;;;;2.20;1.10;;;;;;;;;;732388;189;918409;-70
2023/12/26 02:00:45;;;;;;;4.97;1.57;;;;;;;;;;731351;189;918753;-70
2023/12/26 02:03:11;;;;;;;2.60;1.47;;;;;;;;;;734129;187;918819;-70
2023/12/26 02:05:36;;;;;;;3.20;1.37;;;;;;;;;;736953;189;918850;-69
2023/12/26 02:08:03;;;;;;;3.40;1.47;;;;;;;;;;735833;188;932874;-60
2023/12/26 02:10:28;;;;;;;3.03;1.40;;;;;;;;;;733521;189;917141;-69
2023/12/26 02:12:54;;;;;;;3.20;1.30;;;;;;;;;;740135;189;919937;-59
2023/12/26 02:15:20;;;;;;;2.53;1.27;;;;;;;;;;731531;188;920989;-61
2023/12/26 02:17:46;;;;;;;2.70;1.40;;;;;;;;;;730703;189;917545;-61
2023/12/26 02:20:12;;;;;;;3.20;2.07;;;;;;;;;;738874;189;918945;-69
2023/12/26 02:22:38;;;;;;;2.70;1.13;;;;;;;;;;732122;189;919398;-70
2023/12/26 02:25:04;;;;;;;4.57;1.50;;;;;;;;;;740562;188;921170;-61
2023/12/26 02:27:30;;;;;;;2.35;1.25;;;;;;;;;;742480;187;918404;-62
2023/12/26 02:29:56;;;;;;;2.23;1.10;;;;;;;;;;737297;186;917988;-60
2023/12/26 02:32:22;;;;;;;3.30;1.57;;;;;;;;;;738418;188;914511;-70
2023/12/26 02:34:48;;;;;;;4.30;1.23;;;;;;;;;;732463;189;915717;-61
2023/12/26 02:37:13;;;;;;;2.80;1.20;;;;;;;;;;737874;188;919470;-72
2023/12/26 02:39:40;;;;;;;2.67;1.37;;;;;;;;;;725561;189;924993;-61
2023/12/26 02:42:05;;;;;;;2.83;1.43;;;;;;;;;;733583;189;909860;-60
2023/12/26 02:44:31;;;;;;;2.37;1.13;;;;;;;;;;740879;188;816261;-60
2023/12/26 02:46:57;;;;;;;4.17;1.90;;;;;;;;;;737251;185;916668;-70
2023/12/26 02:49:22;;;;;;;2.70;1.30;;;;;;;;;;729351;185;824508;-60
2023/12/26 02:51:48;;;;;;;2.80;1.60;;;;;;;;;;741857;188;907564;-69
2023/12/26 02:54:14;;;;;;;2.47;1.23;;;;;;;;;;735136;189;915369;-61
2023/12/26 02:56:40;;;;;;;3.20;1.57;;;;;;;;;;739131;188;919675;-60
2023/12/26 02:59:06;;;;;;;2.90;1.50;;;;;;;;;;738139;188;917594;-60
2023/12/26 03:01:32;;;;;;;3.00;1.17;;;;;;;;;;739105;188;919991;-69
2023/12/26 03:03:57;;;;;;;2.50;1.30;;;;;;;;;;733015;189;846518;-60
2023/12/26 03:06:23;;;;;;;3.73;1.53;;;;;;;;;;732838;188;917086;-60
2023/12/26 03:08:49;;;;;;;2.90;1.42;;;;;;;;;;740713;188;913765;-61
2023/12/26 03:11:15;;;;;;;3.00;1.40;;;;;;;;;;735379;189;918890;-71
2023/12/26 03:13:41;;;;;;;2.77;1.53;;;;;;;;;;733620;189;919864;-61
2023/12/26 03:16:07;;;;;;;2.33;1.37;;;;;;;;;;739257;188;919713;-69
2023/12/26 03:18:32;;;;;;;2.72;1.40;;;;;;;;;;734824;188;920858;-61
2023/12/26 03:20:58;;;;;;;2.60;1.30;;;;;;;;;;732901;188;919136;-70
2023/12/26 03:23:24;;;;;;;4.40;1.83;;;;;;;;;;732709;191;919011;-68
2023/12/26 03:25:50;;;;;;;3.60;1.17;;;;;;;;;;737821;188;918905;-70
2023/12/26 03:28:16;;;;;;;2.50;1.40;;;;;;;;;;730832;188;920257;-60
2023/12/26 03:30:42;;;;;;;3.13;1.70;;;;;;;;;;731139;189;918918;-69
2023/12/26 03:33:08;;;;;;;3.90;1.50;;;;;;;;;;733794;189;918666;-60
2023/12/26 03:35:33;;;;;;;3.80;1.43;;;;;;;;;;732175;190;901744;-61
2023/12/26 03:37:59;;;;;;;2.70;1.30;;;;;;;;;;732618;188;849978;-69
2023/12/26 03:40:25;;;;;;;2.10;1.10;;;;;;;;;;740946;188;879508;-68
2023/12/26 03:42:51;;;;;;;3.20;1.50;;;;;;;;;;730562;188;918771;-61
2023/12/26 03:45:17;;;;;;;2.33;1.10;;;;;;;;;;735407;189;817994;-61
2023/12/26 03:47:43;;;;;;;2.30;1.23;;;;;;;;;;736171;189;921924;-61
2023/12/26 03:50:10;;;;;;;4.00;1.33;;;;;;;;;;731458;188;918820;-61
2023/12/26 03:52:35;;;;;;;2.27;1.30;;;;;;;;;;732996;189;918182;-61
2023/12/26 03:55:00;;;;;;;2.70;1.37;;;;;;;;;;733486;190;921803;-61
2023/12/26 03:57:26;;;;;;;2.37;1.10;;;;;;;;;;738009;188;910871;-60
2023/12/26 03:59:52;;;;;;;3.40;1.40;;;;;;;;;;737098;188;897794;-60
2023/12/26 04:02:18;;;;;;;3.17;1.40;;;;;;;;;;733704;185;921905;-68
2023/12/26 04:04:44;;;;;;;2.53;1.20;;;;;;;;;;737887;189;917241;-70
2023/12/26 04:07:10;;;;;;;2.50;1.40;;;;;;;;;;733838;190;918107;-60
2023/12/26 04:09:35;;;;;;;2.63;1.60;;;;;;;;;;732874;188;919357;-65
2023/12/26 04:12:01;;;;;;;2.43;1.27;;;;;;;;;;735404;188;872021;-70
2023/12/26 04:14:27;;;;;;;2.40;1.23;;;;;;;;;;735523;188;1019327;-69
2023/12/26 04:16:53;;;;;;;2.07;1.10;;;;;;;;;;733817;188;819363;-60
2023/12/26 04:19:19;;;;;;;4.18;1.73;;;;;;;;;;734471;190;919162;-61
2023/12/26 04:21:45;;;;;;;4.95;1.33;;;;;;;;;;746848;186;921977;-60
2023/12/26 04:24:11;;;;;;;2.60;1.30;;;;;;;;;;733646;189;918526;-61
2023/12/26 04:26:37;;;;;;;2.20;1.00;;;;;;;;;;736479;188;877504;-60
2023/12/26 04:29:03;;;;;;;2.40;1.10;;;;;;;;;;740209;189;879950;-69
2023/12/26 04:31:28;;;;;;;3.93;1.40;;;;;;;;;;732250;188;923278;-69
2023/12/26 04:33:54;;;;;;;2.13;1.00;;;;;;;;;;731892;188;919453;-70
2023/12/26 04:36:20;;;;;;;2.37;1.02;;;;;;;;;;738434;189;1015893;-70
2023/12/26 04:38:46;;;;;;;3.40;1.60;;;;;;;;;;739780;187;922529;-70
2023/12/26 04:41:12;;;;;;;2.60;1.20;;;;;;;;;;733882;186;844448;-60
2023/12/26 04:43:38;;;;;;;2.20;1.13;;;;;;;;;;736933;189;910034;-70
2023/12/26 04:46:03;;;;;;;2.70;1.50;;;;;;;;;;730982;188;919039;-61
2023/12/26 04:48:29;;;;;;;2.50;1.07;;;;;;;;;;734617;189;826325;-60
2023/12/26 04:50:55;;;;;;;3.13;1.57;;;;;;;;;;731527;187;921089;-69
2023/12/26 04:53:21;;;;;;;2.87;1.27;;;;;;;;;;746645;186;916728;-60
2023/12/26 04:55:47;;;;;;;2.93;1.17;;;;;;;;;;739644;185;912748;-60
2023/12/26 04:58:13;;;;;;;2.90;1.57;;;;;;;;;;733209;186;917876;-69
2023/12/26 05:00:38;;;;;;;3.63;1.13;;;;;;;;;;738025;188;919998;-70
2023/12/26 05:03:04;;;;;;;2.33;1.40;;;;;;;;;;736578;189;915899;-69
2023/12/26 05:05:30;;;;;;;3.20;1.50;;;;;;;;;;732237;188;906446;-60
2023/12/26 05:07:56;;;;;;;3.23;1.40;;;;;;;;;;737321;189;913660;-70
2023/12/26 05:10:22;;;;;;;2.50;1.07;;;;;;;;;;733611;188;915533;-70
2023/12/26 05:12:48;;;;;;;2.60;1.17;;;;;;;;;;733557;188;900046;-60
2023/12/26 05:15:14;;;;;;;4.17;1.23;;;;;;;;;;738096;187;893597;-61
2023/12/26 05:17:39;;;;;;;3.83;1.57;;;;;;;;;;734208;188;919494;-61
2023/12/26 05:20:06;;;;;;;2.40;1.20;;;;;;;;;;736869;187;923184;-70
2023/12/26 05:22:31;;;;;;;3.23;1.30;;;;;;;;;;733794;188;919356;-70
2023/12/26 05:24:57;;;;;;;2.60;1.33;;;;;;;;;;739168;188;919490;-60
2023/12/26 05:27:23;;;;;;;2.65;1.20;;;;;;;;;;732557;189;918739;-70
2023/12/26 05:29:49;;;;;;;2.53;1.23;;;;;;;;;;734039;189;912878;-60
2023/12/26 05:32:15;;;;;;;2.77;1.10;;;;;;;;;;740689;188;917464;-71
2023/12/26 05:34:41;;;;;;;2.20;1.13;;;;;;;;;;734002;189;919059;-70
2023/12/26 05:37:06;;;;;;;2.58;1.20;;;;;;;;;;733386;189;919282;-70
2023/12/26 05:39:32;;;;;;;2.00;1.03;;;;;;;;;;735103;191;919239;-70
2023/12/26 05:41:58;;;;;;;2.15;1.17;;;;;;;;;;731459;190;919631;-70
2023/12/26 05:44:24;;;;;;;4.70;1.30;;;;;;;;;;733606;189;918973;-70
2023/12/26 05:46:50;;;;;;;2.90;1.05;;;;;;;;;;732579;189;919613;-69
2023/12/26 05:49:16;;;;;;;2.63;1.30;;;;;;;;;;742260;187;816779;-61
2023/12/26 05:51:42;;;;;;;3.60;1.27;;;;;;;;;;733379;184;921685;-61
2023/12/26 05:54:07;;;;;;;2.37;1.13;;;;;;;;;;731629;189;918852;-61
2023/12/26 05:56:33;;;;;;;2.50;1.00;;;;;;;;;;739523;189;789024;-60
2023/12/26 05:58:59;;;;;;;4.63;1.20;;;;;;;;;;731442;188;914720;-70
2023/12/26 06:01:25;;;;;;;3.23;1.90;;;;;;;;;;733998;188;858804;-70
2023/12/26 06:03:51;;;;;;;2.43;1.00;;;;;;;;;;737462;188;910661;-60
2023/12/26 06:06:17;;;;;;;3.27;1.10;;;;;;;;;;732716;188;919115;-60
2023/12/26 06:08:43;;;;;;;4.03;1.00;;;;;;;;;;730401;189;919586;-60
2023/12/26 06:11:08;;;;;;;3.20;1.40;;;;;;;;;;739060;189;814402;-61
2023/12/26 06:13:34;;;;;;;2.40;1.30;;;;;;;;;;734339;189;919609;-61
2023/12/26 06:16:00;;;;;;;2.87;1.17;;;;;;;;;;729795;189;924384;-61
2023/12/26 06:18:26;;;;;;;2.80;1.10;;;;;;;;;;735215;189;815993;-61
2023/12/26 06:20:52;;;;;;;3.00;1.37;;;;;;;;;;742089;185;721118;-60
2023/12/26 06:23:18;;;;;;;2.30;1.20;;;;;;;;;;732800;187;913813;-70
2023/12/26 06:25:44;;;;;;;2.00;1.10;;;;;;;;;;733212;187;901761;-70
2023/12/26 06:28:09;;;;;;;2.37;1.30;;;;;;;;;;738018;188;918846;-75
2023/12/26 06:30:35;;;;;;;2.50;1.13;;;;;;;;;;733041;188;919338;-69
2023/12/26 06:33:01;;;;;;;2.67;1.17;;;;;;;;;;734267;188;918609;-61
2023/12/26 06:35:27;;;;;;;2.90;1.33;;;;;;;;;;736617;188;919085;-61
2023/12/26 06:37:53;;;;;;;3.60;1.30;;;;;;;;;;733658;188;919897;-60
2023/12/26 06:40:19;;;;;;;3.13;1.40;;;;;;;;;;733691;188;820394;-70
2023/12/26 06:42:45;;;;;;;2.95;1.37;;;;;;;;;;732962;189;922123;-61
2023/12/26 06:45:11;;;;;;;3.30;1.23;;;;;;;;;;739942;185;918700;-70
2023/12/26 06:47:37;;;;;;;2.53;1.37;;;;;;;;;;736936;186;911078;-60
2023/12/26 06:50:03;;;;;;;2.10;1.10;;;;;;;;;;732398;188;919223;-70
2023/12/26 06:52:28;;;;;;;2.30;1.37;;;;;;;;;;741239;188;821481;-70
2023/12/26 06:54:54;;;;;;;2.67;1.40;;;;;;;;;;734194;189;899822;-61
2023/12/26 06:57:20;;;;;;;3.10;1.20;;;;;;;;;;733456;189;1019412;-70
2023/12/26 06:59:48;;;;;;;2.53;1.27;;;;;;;;;;740194;188;911666;-61
2023/12/26 07:02:12;;;;;;;3.43;1.47;;;;;;;;;;732714;189;831503;-69
2023/12/26 07:04:38;;;;;;;3.23;1.33;;;;;;;;;;732655;188;918714;-70
2023/12/26 07:07:04;;;;;;;3.10;1.35;;;;;;;;;;738523;189;810643;-61
2023/12/26 07:09:29;;;;;;;2.57;1.17;;;;;;;;;;734435;189;918869;-60
2023/12/26 07:11:55;;;;;;;3.23;1.50;;;;;;;;;;733404;189;849913;-70
2023/12/26 07:14:21;;;;;;;2.87;1.17;;;;;;;;;;733122;189;918276;-61
2023/12/26 07:16:47;;;;;;;3.37;1.30;;;;;;;;;;742814;187;917635;-70
2023/12/26 07:19:13;;;;;;;4.57;1.30;;;;;;;;;;731546;188;918990;-61
2023/12/26 07:21:39;;;;;;;2.60;1.20;;;;;;;;;;735090;189;919438;-61
2023/12/26 07:24:05;;;;;;;2.50;1.30;;;;;;;;;;735927;189;919377;-70
2023/12/26 07:26:31;;;;;;;3.60;1.47;;;;;;;;;;731854;188;923085;-61
2023/12/26 07:28:57;;;;;;;2.20;1.20;;;;;;;;;;731508;188;920179;-71
2023/12/26 07:31:23;;;;;;;2.33;1.27;;;;;;;;;;739151;189;815258;-70
2023/12/26 07:33:51;;;;;;;3.17;1.67;;;;;;;;;;734243;188;922500;-70
2023/12/26 07:36:15;;;;;;;3.93;1.50;;;;;;;;;;736168;188;816614;-61
2023/12/26 07:38:41;;;;;;;4.40;1.67;;;;;;;;;;739243;187;815654;-60
2023/12/26 07:41:07;;;;;;;2.90;1.53;;;;;;;;;;742546;187;816389;-60
2023/12/26 07:43:33;;;;;;;3.00;1.40;;;;;;;;;;738903;185;919094;-61
2023/12/26 07:45:59;;;;;;;2.53;1.20;;;;;;;;;;736289;188;868532;-69
2023/12/26 07:48:25;;;;;;;2.60;1.47;;;;;;;;;;738734;188;919190;-70
2023/12/26 07:50:50;;;;;;;2.50;1.17;;;;;;;;;;730242;190;917165;-69
2023/12/26 07:53:16;;;;;;;8.90;1.37;;;;;;;;;;734152;190;912311;-60
2023/12/26 07:55:42;;;;;;;2.30;1.13;;;;;;;;;;742745;188;905995;-70
2023/12/26 07:58:08;;;;;;;2.70;1.40;;;;;;;;;;732448;185;917335;-60
2023/12/26 08:00:34;;;;;;;2.70;1.30;;;;;;;;;;733002;188;918557;-69
2023/12/26 08:03:00;;;;;;;2.80;1.47;;;;;;;;;;742551;187;752323;-60
2023/12/26 08:05:25;;;;;;;3.20;1.50;;;;;;;;;;730481;189;918957;-61
2023/12/26 08:07:51;;;;;;;2.60;1.50;;;;;;;;;;734994;188;914976;-60
2023/12/26 08:10:17;;;;;;;3.03;1.47;;;;;;;;;;735157;188;906925;-70
2023/12/26 08:12:44;;;;;;;2.80;1.47;;;;;;;;;;735438;187;920997;-60
2023/12/26 08:15:09;;;;;;;2.20;1.10;;;;;;;;;;730391;189;962276;-70
2023/12/26 08:17:35;;;;;;;2.80;1.35;;;;;;;;;;741474;186;927639;-70
2023/12/26 08:20:01;;;;;;;3.07;1.07;;;;;;;;;;735459;185;920924;-70
2023/12/26 08:22:26;;;;;;;2.80;1.30;;;;;;;;;;733700;189;815691;-70
2023/12/26 08:24:52;;;;;;;2.33;1.17;;;;;;;;;;733298;189;917251;-61
2023/12/26 08:27:18;;;;;;;2.50;1.20;;;;;;;;;;740444;189;914376;-70
2023/12/26 08:29:44;;;;;;;3.30;1.47;;;;;;;;;;732851;187;918910;-61
2023/12/26 08:32:10;;;;;;;3.10;1.40;;;;;;;;;;734258;187;818250;-60
2023/12/26 08:34:36;;;;;;;2.87;1.30;;;;;;;;;;736349;189;920097;-61
2023/12/26 08:37:02;;;;;;;2.40;1.10;;;;;;;;;;746114;187;881551;-71
2023/12/26 08:39:28;;;;;;;2.90;1.33;;;;;;;;;;731197;185;920980;-60
2023/12/26 08:41:53;;;;;;;3.07;1.77;;;;;;;;;;732926;189;924878;-60
2023/12/26 08:44:19;;;;;;;2.50;1.10;;;;;;;;;;742623;183;815874;-71
2023/12/26 08:46:45;;;;;;;3.13;1.23;;;;;;;;;;729848;189;919676;-69
2023/12/26 08:49:11;;;;;;;2.73;1.33;;;;;;;;;;738033;187;917767;-70
2023/12/26 08:51:37;;;;;;;2.60;1.40;;;;;;;;;;744394;186;814878;-70
2023/12/26 08:54:03;;;;;;;4.17;1.73;;;;;;;;;;734119;188;917330;-70
2023/12/26 08:56:29;;;;;;;3.95;1.50;;;;;;;;;;735020;187;957943;-61
2023/12/26 08:58:55;;;;;;;5.25;1.40;;;;;;;;;;736582;187;926825;-70
2023/12/26 09:01:20;;;;;;;2.20;1.20;;;;;;;;;;733307;187;913015;-70
2023/12/26 09:03:46;;;;;;;3.57;1.50;;;;;;;;;;732949;187;914077;-60
2023/12/26 09:06:12;;;;;;;2.77;1.40;;;;;;;;;;736452;188;913464;-61
2023/12/26 09:08:38;;;;;;;3.27;1.50;;;;;;;;;;735600;188;917109;-60
2023/12/26 09:11:04;;;;;;;2.27;1.10;;;;;;;;;;732515;189;915382;-70
2023/12/26 09:13:30;;;;;;;3.53;1.50;;;;;;;;;;733581;188;821391;-61
2023/12/26 09:15:56;;;;;;;4.10;1.40;;;;;;;;;;736893;188;922184;-69
2023/12/26 09:18:21;;;;;;;2.37;1.10;;;;;;;;;;735167;188;919456;-70
2023/12/26 09:20:47;;;;;;;3.63;1.90;;;;;;;;;;732593;189;911883;-60
2023/12/26 09:23:13;;;;;;;3.13;1.40;;;;;;;;;;738047;188;892916;-61
2023/12/26 09:25:40;;;;;;;2.80;1.23;;;;;;;;;;730037;189;928300;-70
2023/12/26 09:28:05;;;;;;;2.77;1.50;;;;;;;;;;735351;188;820757;-70
2023/12/26 09:30:31;;;;;;;3.33;1.80;;;;;;;;;;731786;189;995226;-69
2023/12/26 09:32:57;;;;;;;3.90;1.40;;;;;;;;;;739563;188;627970;-60
2023/12/26 09:35:22;;;;;;;3.53;1.47;;;;;;;;;;731445;187;911104;-71
2023/12/26 09:37:49;;;;;;;2.50;1.33;;;;;;;;;;731208;189;916669;-71
2023/12/26 09:40:14;;;;;;;3.40;1.85;;;;;;;;;;737836;188;917221;-70
2023/12/26 09:42:41;;;;;;;3.43;1.50;;;;;;;;;;729558;188;920509;-70
2023/12/26 09:45:06;;;;;;;4.47;1.50;;;;;;;;;;734096;188;873014;-60
2023/12/26 09:47:32;;;;;;;4.20;1.63;;;;;;;;;;733901;191;918184;-60
2023/12/26 09:49:58;;;;;;;3.67;1.83;;;;;;;;;;732862;189;816937;-69
2023/12/26 09:52:24;;;;;;;4.47;1.60;;;;;;;;;;730385;188;917181;-60
2023/12/26 09:54:50;;;;;;;3.73;1.50;;;;;;;;;;735531;188;1021386;-68
2023/12/26 09:57:15;;;;;;;2.60;1.40;;;;;;;;;;741356;186;919083;-70
2023/12/26 09:59:41;;;;;;;4.03;1.30;;;;;;;;;;737955;188;816478;-71
2023/12/26 10:02:09;;;;;;;2.90;1.13;;;;;;;;;;738610;187;913564;-70
2023/12/26 10:04:35;;;;;;;3.17;1.50;;;;;;;;;;738943;187;916572;-70
2023/12/26 10:07:01;;;;;;;3.43;1.50;;;;;;;;;;733041;189;919949;-60
2023/12/26 10:09:27;;;;;;;2.67;1.20;;;;;;;;;;735813;188;919250;-61
2023/12/26 10:11:53;;;;;;;2.77;1.73;;;;;;;;;;739759;188;819721;-70
2023/12/26 10:14:24;;;;;;;2.63;1.57;;;;;;;;;;735137;187;867952;-60
2023/12/26 10:16:50;;;;;;;2.80;1.50;;;;;;;;;;738147;188;816465;-60
2023/12/26 10:19:16;;;;;;;3.37;1.43;;;;;;;;;;730780;188;822933;-70
2023/12/26 10:21:42;;;;;;;3.53;1.10;;;;;;;;;;742144;188;633256;-70
2023/12/26 10:24:09;;;;;;;2.40;1.20;;;;;;;;;;738243;188;632770;-60
2023/12/26 10:26:34;;;;;;;2.90;1.17;;;;;;;;;;734677;189;817180;-70
2023/12/26 10:29:00;;;;;;;2.17;1.10;;;;;;;;;;737652;188;877942;-70
2023/12/26 10:31:26;;;;;;;2.63;1.27;;;;;;;;;;733405;188;917715;-70
2023/12/26 10:33:52;;;;;;;2.40;1.10;;;;;;;;;;732830;188;918566;-70
2023/12/26 10:36:18;;;;;;;3.70;1.57;;;;;;;;;;737012;189;920782;-70
2023/12/26 10:38:44;;;;;;;3.03;1.53;;;;;;;;;;730204;189;920833;-70
2023/12/26 10:41:10;;;;;;;2.92;1.77;;;;;;;;;;730727;189;918366;-70
2023/12/26 10:43:37;;;;;;;2.37;1.37;;;;;;;;;;729013;188;1022255;-69
2023/12/26 10:46:06;;;;;;;3.07;1.47;;;;;;;;;;737438;188;719426;-60
2023/12/26 10:48:30;;;;;;;2.93;1.40;;;;;;;;;;732036;188;912940;-60
2023/12/26 10:50:55;;;;;;;3.33;2.20;;;;;;;;;;734225;189;880455;-70
2023/12/26 10:53:21;;;;;;;3.77;2.17;;;;;;;;;;737901;188;816722;-61
2023/12/26 10:55:47;;;;;;;2.60;1.50;;;;;;;;;;730946;188;915813;-70
2023/12/26 10:58:16;;;;;;;3.53;1.67;;;;;;;;;;732098;188;911717;-70
2023/12/26 11:00:47;;;;;;;2.97;1.63;;;;;;;;;;733357;188;1021719;-60
2023/12/26 13:51:28;;;;;;;5.30;2.43;;;;;;;;;;729939;188;915286;-69
2023/12/26 13:53:59;;;;;;;4.00;1.87;;;;;;;;;;730475;189;919088;-70
2023/12/26 13:56:31;;;;;;;7.30;2.70;;;;;;;;;;732489;189;918969;-71
2023/12/26 13:59:03;;;;;;;4.57;2.08;;;;;;;;;;736938;186;916908;-61
2023/12/26 14:01:35;;;;;;;2.80;1.70;;;;;;;;;;723728;190;919411;-70
2023/12/26 14:04:06;;;;;;;3.30;1.90;;;;;;;;;;734767;189;830606;-71
2023/12/26 14:06:38;;;;;;;4.70;2.37;;;;;;;;;;733734;190;919460;-70
2023/12/26 14:09:10;;;;;;;5.83;2.23;;;;;;;;;;737629;189;908577;-61
2023/12/26 14:11:42;;;;;;;3.83;2.00;;;;;;;;;;720947;193;923726;-70
2023/12/26 14:14:13;;;;;;;3.97;2.57;;;;;;;;;;725077;191;815757;-70
2023/12/26 14:16:45;;;;;;;5.60;2.23;;;;;;;;;;719898;191;1014019;-63
2023/12/26 14:19:16;;;;;;;4.10;2.43;;;;;;;;;;732245;189;822029;-62
2023/12/26 14:21:48;;;;;;;3.23;1.67;;;;;;;;;;740642;187;814476;-70
2023/12/26 14:24:20;;;;;;;4.33;1.80;;;;;;;;;;737888;189;918943;-61
2023/12/26 14:26:52;;;;;;;4.20;2.07;;;;;;;;;;734275;189;916381;-69
2023/12/26 14:29:24;;;;;;;3.83;2.15;;;;;;;;;;732763;189;915813;-70
2023/12/26 14:31:55;;;;;;;3.97;1.93;;;;;;;;;;727493;187;919350;-62
2023/12/26 14:34:27;;;;;;;4.07;2.03;;;;;;;;;;737146;189;921921;-70
2023/12/26 14:36:59;;;;;;;3.73;1.93;;;;;;;;;;738218;189;918866;-61
2023/12/26 14:39:31;;;;;;;3.97;1.87;;;;;;;;;;731857;189;919074;-70
2023/12/26 14:42:03;;;;;;;3.50;2.13;;;;;;;;;;732900;189;911525;-70
2023/12/26 14:44:35;;;;;;;8.00;1.97;;;;;;;;;;734090;187;919897;-62
2023/12/26 14:47:06;;;;;;;3.57;2.07;;;;;;;;;;747871;186;918760;-62
2023/12/26 14:49:38;;;;;;;8.30;2.53;;;;;;;;;;746083;186;929420;-62
2023/12/26 14:52:10;;;;;;;3.97;1.92;;;;;;;;;;738414;185;919083;-62
2023/12/26 14:54:42;;;;;;;4.10;1.87;;;;;;;;;;736990;186;907796;-61
2023/12/26 14:57:14;;;;;;;3.12;1.58;;;;;;;;;;731179;188;917725;-61
2023/12/26 14:59:46;;;;;;;3.10;1.63;;;;;;;;;;736764;189;921280;-71
2023/12/26 15:02:12;;;;;;;4.00;1.73;;;;;;;;;;747351;185;921407;-71
2023/12/26 15:04:38;;;;;;;3.97;1.90;;;;;;;;;;738594;186;918792;-61
2023/12/26 15:07:05;;;;;;;3.87;2.00;;;;;;;;;;732303;189;918909;-61
2023/12/26 15:09:29;;;;;;;4.27;2.47;;;;;;;;;;737847;188;865566;-61
2023/12/26 15:11:55;;;;;;;4.60;2.30;;;;;;;;;;732588;188;870467;-71
2023/12/26 15:14:21;;;;;;;2.90;1.83;;;;;;;;;;733855;188;816046;-61
2023/12/26 15:16:47;;;;;;;3.00;1.73;;;;;;;;;;734554;188;901061;-72
2023/12/26 15:19:13;;;;;;;3.90;2.37;;;;;;;;;;733742;187;917988;-70
2023/12/26 15:21:39;;;;;;;4.30;2.03;;;;;;;;;;739797;184;933305;-61
2023/12/26 15:24:05;;;;;;;4.40;1.87;;;;;;;;;;738492;186;915934;-70
2023/12/26 15:26:31;;;;;;;6.60;2.10;;;;;;;;;;741846;188;816198;-71
2023/12/26 15:28:56;;;;;;;8.73;2.23;;;;;;;;;;737864;185;886035;-61
2023/12/26 15:31:22;;;;;;;4.87;2.40;;;;;;;;;;730797;188;922217;-63
2023/12/26 15:33:49;;;;;;;5.03;2.60;;;;;;;;;;740750;187;916280;-68
2023/12/26 15:36:19;;;;;;;3.63;2.10;;;;;;;;;;743160;186;922718;-61
2023/12/26 15:38:45;;;;;;;8.37;2.30;;;;;;;;;;720786;192;961178;-71
2023/12/26 15:41:10;;;;;;;2.80;1.80;;;;;;;;;;725425;189;1022734;-62
2023/12/26 15:43:36;;;;;;;3.43;2.00;;;;;;;;;;749781;186;815580;-62
2023/12/26 15:46:02;;;;;;;3.87;2.00;;;;;;;;;;722617;193;629777;-63
2023/12/26 15:48:28;;;;;;;4.70;1.90;;;;;;;;;;721500;192;919324;-61
2023/12/26 15:50:54;;;;;;;3.80;2.10;;;;;;;;;;730125;190;796234;-71
2023/12/26 15:53:20;;;;;;;4.47;2.17;;;;;;;;;;724411;191;617837;-71
2023/12/26 15:55:46;;;;;;;4.80;2.10;;;;;;;;;;734908;187;816686;-70
2023/12/26 15:58:12;;;;;;;5.50;2.00;;;;;;;;;;738608;189;635630;-61
2023/12/26 16:00:37;;;;;;;6.28;2.60;;;;;;;;;;735532;188;833044;-71
2023/12/26 16:03:03;;;;;;;3.60;1.73;;;;;;;;;;733952;188;920055;-71
2023/12/26 16:05:29;;;;;;;4.87;1.93;;;;;;;;;;740672;187;626592;-61
2023/12/26 16:07:55;;;;;;;4.93;2.20;;;;;;;;;;734721;189;989943;-62
2023/12/26 16:10:23;;;;;;;9.50;2.10;;;;;;;;;;734935;189;918496;-61
2023/12/26 16:12:47;;;;;;;3.53;2.37;;;;;;;;;;736658;187;814487;-71
2023/12/26 16:15:13;;;;;;;5.10;2.60;;;;;;;;;;739005;187;917825;-71
2023/12/26 16:17:38;;;;;;;3.80;2.30;;;;;;;;;;732972;189;819902;-70
2023/12/26 16:20:04;;;;;;;6.10;2.20;;;;;;;;;;733776;188;919693;-61
2023/12/26 16:22:30;;;;;;;3.50;1.90;;;;;;;;;;737567;188;835762;-70
2023/12/26 16:24:56;;;;;;;3.40;2.07;;;;;;;;;;733189;188;918236;-61
2023/12/26 16:27:24;;;;;;;3.50;1.90;;;;;;;;;;733858;188;816852;-70
2023/12/26 16:29:48;;;;;;;4.17;2.13;;;;;;;;;;735260;188;918569;-70
2023/12/26 16:32:14;;;;;;;2.87;1.80;;;;;;;;;;730319;189;918118;-61
2023/12/26 16:34:39;;;;;;;3.43;2.40;;;;;;;;;;734495;189;912993;-61
2023/12/26 16:37:05;;;;;;;5.10;2.57;;;;;;;;;;734294;187;895452;-70
2023/12/26 16:39:31;;;;;;;5.45;2.62;;;;;;;;;;736783;188;821714;-70
2023/12/26 16:41:59;;;;;;;6.90;2.30;;;;;;;;;;733935;184;881623;-70
2023/12/26 16:44:24;;;;;;;4.70;2.20;;;;;;;;;;737099;184;918393;-69
2023/12/26 16:46:49;;;;;;;4.07;2.50;;;;;;;;;;735126;189;870673;-61
2023/12/26 16:49:15;;;;;;;6.83;2.40;;;;;;;;;;731526;188;946816;-70
2023/12/26 16:51:41;;;;;;;5.30;2.90;;;;;;;;;;731753;187;914949;-71
2023/12/26 16:54:08;;;;;;;9.03;2.50;;;;;;;;;;737966;188;917695;-61
2023/12/26 16:56:33;;;;;;;5.33;2.40;;;;;;;;;;734567;189;716528;-62
2023/12/26 16:58:59;;;;;;;6.83;2.90;;;;;;;;;;735094;189;941199;-61
2023/12/26 17:01:25;;;;;;;4.20;2.30;;;;;;;;;;738857;187;916984;-72
2023/12/26 17:03:50;;;;;;;5.20;3.00;;;;;;;;;;734742;189;918312;-61
2023/12/26 17:06:16;;;;;;;6.50;2.70;;;;;;;;;;731923;189;917737;-61
2023/12/26 17:08:42;;;;;;;6.30;3.13;;;;;;;;;;735606;188;631522;-72
2023/12/26 17:11:10;;;;;;;8.90;4.00;;;;;;;;;;741823;187;631215;-61